Petersville, Texas
Current Conditions -  °F | °C
As of 10:51 PM on Wednesday 26 Nov 2014 (Local Time) from KVCT Reporting Station
Clear Clear  
Wind Chill:   Ceiling: Unl
Heat Index:   Visibility: 10mi
Dew Point:   Wind: 0mph
Humidity: 86%   Direction: NA
Pressure: 30.31"   Gusts: NA
Location:  29.2421°N, 97.0692°W
Report Text: KVCT 270451Z AUTO 00000KT 10SM CLR 09/07 A3031 RMK AO2 SLP264 T00890067
Loading
Personal Weather Stations






























Interactive Weather Map New forecast layout! Learn more

10-Day Weather Forecast

Advertisements
Track Severe Weather on mobile